sensor_id;sensor_type;location;lat;lon;timestamp;P1;durP1;ratioP1;P2;durP2;ratioP2
67696;SDS011;54486;51.442;6.778;2024-02-14T00:01:32;10.57;;;4.20;;
67696;SDS011;54486;51.442;6.778;2024-02-14T00:04:00;11.55;;;4.05;;
67696;SDS011;54486;51.442;6.778;2024-02-14T00:06:28;11.18;;;4.22;;
67696;SDS011;54486;51.442;6.778;2024-02-14T00:08:57;11.27;;;3.90;;
67696;SDS011;54486;51.442;6.778;2024-02-14T00:11:24;10.97;;;3.70;;
67696;SDS011;54486;51.442;6.778;2024-02-14T00:13:51;9.35;;;3.67;;
67696;SDS011;54486;51.442;6.778;2024-02-14T00:16:18;11.73;;;3.67;;
67696;SDS011;54486;51.442;6.778;2024-02-14T00:18:45;9.75;;;3.20;;
67696;SDS011;54486;51.442;6.778;2024-02-14T00:21:13;10.77;;;3.47;;
67696;SDS011;54486;51.442;6.778;2024-02-14T00:23:40;9.35;;;3.67;;
67696;SDS011;54486;51.442;6.778;2024-02-14T00:26:07;8.30;;;2.95;;
67696;SDS011;54486;51.442;6.778;2024-02-14T00:28:35;8.77;;;2.90;;
67696;SDS011;54486;51.442;6.778;2024-02-14T00:31:02;10.02;;;3.33;;
67696;SDS011;54486;51.442;6.778;2024-02-14T00:33:30;9.00;;;3.20;;
67696;SDS011;54486;51.442;6.778;2024-02-14T00:35:58;8.68;;;2.58;;
67696;SDS011;54486;51.442;6.778;2024-02-14T00:38:25;7.32;;;2.50;;
67696;SDS011;54486;51.442;6.778;2024-02-14T00:40:52;7.57;;;2.85;;
67696;SDS011;54486;51.442;6.778;2024-02-14T00:43:19;8.75;;;2.65;;
67696;SDS011;54486;51.442;6.778;2024-02-14T00:45:46;7.50;;;2.40;;
67696;SDS011;54486;51.442;6.778;2024-02-14T00:48:14;8.80;;;2.70;;
67696;SDS011;54486;51.442;6.778;2024-02-14T00:50:41;7.55;;;2.30;;
67696;SDS011;54486;51.442;6.778;2024-02-14T00:53:09;8.10;;;2.30;;
67696;SDS011;54486;51.442;6.778;2024-02-14T00:55:36;7.90;;;2.30;;
67696;SDS011;54486;51.442;6.778;2024-02-14T00:58:03;7.37;;;2.23;;
67696;SDS011;54486;51.442;6.778;2024-02-14T01:00:31;7.70;;;2.30;;
67696;SDS011;54486;51.442;6.778;2024-02-14T01:03:02;7.22;;;2.13;;
67696;SDS011;54486;51.442;6.778;2024-02-14T01:05:30;6.97;;;2.00;;
67696;SDS011;54486;51.442;6.778;2024-02-14T01:07:57;8.57;;;2.55;;
67696;SDS011;54486;51.442;6.778;2024-02-14T01:10:24;6.55;;;2.00;;
67696;SDS011;54486;51.442;6.778;2024-02-14T01:12:51;7.05;;;2.00;;
67696;SDS011;54486;51.442;6.778;2024-02-14T01:15:18;7.03;;;2.00;;
67696;SDS011;54486;51.442;6.778;2024-02-14T01:17:46;7.18;;;1.85;;
67696;SDS011;54486;51.442;6.778;2024-02-14T01:20:14;7.20;;;2.00;;
67696;SDS011;54486;51.442;6.778;2024-02-14T01:22:42;8.07;;;2.42;;
67696;SDS011;54486;51.442;6.778;2024-02-14T01:25:09;7.70;;;2.00;;
67696;SDS011;54486;51.442;6.778;2024-02-14T01:27:38;7.07;;;2.05;;
67696;SDS011;54486;51.442;6.778;2024-02-14T01:30:06;7.32;;;1.85;;
67696;SDS011;54486;51.442;6.778;2024-02-14T01:32:34;6.95;;;2.00;;
67696;SDS011;54486;51.442;6.778;2024-02-14T01:35:02;7.80;;;2.05;;
67696;SDS011;54486;51.442;6.778;2024-02-14T01:37:30;7.13;;;1.90;;
67696;SDS011;54486;51.442;6.778;2024-02-14T01:39:58;6.97;;;1.85;;
67696;SDS011;54486;51.442;6.778;2024-02-14T01:42:26;6.35;;;1.77;;
67696;SDS011;54486;51.442;6.778;2024-02-14T01:44:55;6.28;;;1.88;;
67696;SDS011;54486;51.442;6.778;2024-02-14T01:47:22;7.07;;;1.92;;
67696;SDS011;54486;51.442;6.778;2024-02-14T01:49:49;6.13;;;1.80;;
67696;SDS011;54486;51.442;6.778;2024-02-14T01:52:16;6.57;;;1.87;;
67696;SDS011;54486;51.442;6.778;2024-02-14T01:54:44;5.55;;;1.92;;
67696;SDS011;54486;51.442;6.778;2024-02-14T01:57:12;6.43;;;1.70;;
67696;SDS011;54486;51.442;6.778;2024-02-14T01:59:39;6.17;;;1.83;;
67696;SDS011;54486;51.442;6.778;2024-02-14T02:02:07;6.47;;;1.97;;
67696;SDS011;54486;51.442;6.778;2024-02-14T02:04:34;6.27;;;1.90;;
67696;SDS011;54486;51.442;6.778;2024-02-14T02:07:01;5.85;;;1.77;;
67696;SDS011;54486;51.442;6.778;2024-02-14T02:09:29;6.47;;;1.75;;
67696;SDS011;54486;51.442;6.778;2024-02-14T02:11:59;6.13;;;2.08;;
67696;SDS011;54486;51.442;6.778;2024-02-14T02:14:28;6.65;;;1.73;;
67696;SDS011;54486;51.442;6.778;2024-02-14T02:16:57;5.65;;;1.60;;
67696;SDS011;54486;51.442;6.778;2024-02-14T02:19:25;6.28;;;1.67;;
67696;SDS011;54486;51.442;6.778;2024-02-14T02:21:52;6.90;;;1.73;;
67696;SDS011;54486;51.442;6.778;2024-02-14T02:24:20;6.50;;;1.80;;
67696;SDS011;54486;51.442;6.778;2024-02-14T02:26:47;5.78;;;1.80;;
67696;SDS011;54486;51.442;6.778;2024-02-14T02:29:14;5.15;;;1.75;;
67696;SDS011;54486;51.442;6.778;2024-02-14T02:31:43;6.50;;;1.73;;
67696;SDS011;54486;51.442;6.778;2024-02-14T02:34:11;6.38;;;2.05;;
67696;SDS011;54486;51.442;6.778;2024-02-14T02:36:42;5.88;;;1.52;;
67696;SDS011;54486;51.442;6.778;2024-02-14T02:39:11;6.13;;;1.67;;
67696;SDS011;54486;51.442;6.778;2024-02-14T02:41:39;5.80;;;1.58;;
67696;SDS011;54486;51.442;6.778;2024-02-14T02:44:06;6.15;;;1.55;;
67696;SDS011;54486;51.442;6.778;2024-02-14T02:46:34;5.70;;;1.70;;
67696;SDS011;54486;51.442;6.778;2024-02-14T02:49:02;5.22;;;1.67;;
67696;SDS011;54486;51.442;6.778;2024-02-14T02:51:30;5.65;;;1.70;;
67696;SDS011;54486;51.442;6.778;2024-02-14T02:53:58;6.70;;;1.50;;
67696;SDS011;54486;51.442;6.778;2024-02-14T02:56:25;7.05;;;1.85;;
67696;SDS011;54486;51.442;6.778;2024-02-14T02:58:55;6.18;;;1.83;;
67696;SDS011;54486;51.442;6.778;2024-02-14T03:01:22;7.63;;;2.05;;
67696;SDS011;54486;51.442;6.778;2024-02-14T03:03:52;6.72;;;2.20;;
67696;SDS011;54486;51.442;6.778;2024-02-14T03:06:19;7.30;;;2.05;;
67696;SDS011;54486;51.442;6.778;2024-02-14T03:08:47;7.20;;;2.17;;
67696;SDS011;54486;51.442;6.778;2024-02-14T03:11:16;8.60;;;2.22;;
67696;SDS011;54486;51.442;6.778;2024-02-14T03:13:43;7.78;;;2.42;;
67696;SDS011;54486;51.442;6.778;2024-02-14T03:16:11;6.93;;;2.30;;
67696;SDS011;54486;51.442;6.778;2024-02-14T03:18:38;7.35;;;2.35;;
67696;SDS011;54486;51.442;6.778;2024-02-14T03:21:06;8.02;;;2.38;;
67696;SDS011;54486;51.442;6.778;2024-02-14T03:23:34;8.68;;;2.08;;
67696;SDS011;54486;51.442;6.778;2024-02-14T03:26:02;7.82;;;2.20;;
67696;SDS011;54486;51.442;6.778;2024-02-14T03:28:35;8.00;;;2.53;;
67696;SDS011;54486;51.442;6.778;2024-02-14T03:31:02;6.72;;;2.05;;
67696;SDS011;54486;51.442;6.778;2024-02-14T03:33:30;6.50;;;2.03;;
67696;SDS011;54486;51.442;6.778;2024-02-14T03:35:58;6.47;;;1.90;;
67696;SDS011;54486;51.442;6.778;2024-02-14T03:38:26;7.33;;;2.00;;
67696;SDS011;54486;51.442;6.778;2024-02-14T03:40:54;7.28;;;2.20;;
67696;SDS011;54486;51.442;6.778;2024-02-14T03:43:22;6.30;;;1.90;;
67696;SDS011;54486;51.442;6.778;2024-02-14T03:45:50;6.50;;;2.10;;
67696;SDS011;54486;51.442;6.778;2024-02-14T03:48:21;7.50;;;2.03;;
67696;SDS011;54486;51.442;6.778;2024-02-14T03:50:48;7.63;;;1.93;;
67696;SDS011;54486;51.442;6.778;2024-02-14T03:53:16;7.15;;;2.15;;
67696;SDS011;54486;51.442;6.778;2024-02-14T03:55:44;6.35;;;2.03;;
67696;SDS011;54486;51.442;6.778;2024-02-14T03:58:12;6.72;;;2.03;;
67696;SDS011;54486;51.442;6.778;2024-02-14T04:00:41;6.18;;;1.90;;
67696;SDS011;54486;51.442;6.778;2024-02-14T04:03:13;6.93;;;2.28;;
67696;SDS011;54486;51.442;6.778;2024-02-14T04:05:40;7.18;;;2.30;;
67696;SDS011;54486;51.442;6.778;2024-02-14T04:08:08;6.73;;;2.13;;
67696;SDS011;54486;51.442;6.778;2024-02-14T04:10:37;7.00;;;1.92;;
67696;SDS011;54486;51.442;6.778;2024-02-14T04:13:04;6.88;;;2.25;;
67696;SDS011;54486;51.442;6.778;2024-02-14T04:15:32;6.13;;;2.00;;
67696;SDS011;54486;51.442;6.778;2024-02-14T04:17:59;6.80;;;2.00;;
67696;SDS011;54486;51.442;6.778;2024-02-14T04:20:33;8.10;;;2.03;;
67696;SDS011;54486;51.442;6.778;2024-02-14T04:23:01;6.63;;;1.88;;
67696;SDS011;54486;51.442;6.778;2024-02-14T04:25:28;6.05;;;2.08;;
67696;SDS011;54486;51.442;6.778;2024-02-14T04:27:55;6.50;;;1.90;;
67696;SDS011;54486;51.442;6.778;2024-02-14T04:30:23;6.50;;;2.10;;
67696;SDS011;54486;51.442;6.778;2024-02-14T04:32:50;6.22;;;1.95;;
67696;SDS011;54486;51.442;6.778;2024-02-14T04:35:19;6.90;;;1.80;;
67696;SDS011;54486;51.442;6.778;2024-02-14T04:37:47;6.20;;;2.30;;
67696;SDS011;54486;51.442;6.778;2024-02-14T04:40:15;5.78;;;1.50;;
67696;SDS011;54486;51.442;6.778;2024-02-14T04:42:43;6.20;;;1.80;;
67696;SDS011;54486;51.442;6.778;2024-02-14T04:45:11;6.10;;;1.80;;
67696;SDS011;54486;51.442;6.778;2024-02-14T04:47:38;6.13;;;1.85;;
67696;SDS011;54486;51.442;6.778;2024-02-14T04:50:05;6.28;;;2.00;;
67696;SDS011;54486;51.442;6.778;2024-02-14T04:52:33;6.22;;;1.83;;
67696;SDS011;54486;51.442;6.778;2024-02-14T04:55:00;6.18;;;1.70;;
67696;SDS011;54486;51.442;6.778;2024-02-14T04:57:27;6.50;;;1.80;;
67696;SDS011;54486;51.442;6.778;2024-02-14T04:59:55;6.97;;;1.80;;
67696;SDS011;54486;51.442;6.778;2024-02-14T05:02:22;7.10;;;1.70;;
67696;SDS011;54486;51.442;6.778;2024-02-14T05:04:50;7.07;;;1.93;;
67696;SDS011;54486;51.442;6.778;2024-02-14T05:07:17;5.85;;;1.63;;
67696;SDS011;54486;51.442;6.778;2024-02-14T05:09:44;6.40;;;1.85;;
67696;SDS011;54486;51.442;6.778;2024-02-14T05:12:11;6.82;;;2.10;;
67696;SDS011;54486;51.442;6.778;2024-02-14T05:14:39;6.30;;;2.00;;
67696;SDS011;54486;51.442;6.778;2024-02-14T05:17:07;6.35;;;1.95;;
67696;SDS011;54486;51.442;6.778;2024-02-14T05:19:35;6.05;;;1.92;;
67696;SDS011;54486;51.442;6.778;2024-02-14T05:22:03;7.10;;;2.00;;
67696;SDS011;54486;51.442;6.778;2024-02-14T05:24:31;5.65;;;1.70;;
67696;SDS011;54486;51.442;6.778;2024-02-14T05:26:58;5.85;;;1.80;;
67696;SDS011;54486;51.442;6.778;2024-02-14T05:29:25;6.45;;;1.98;;
67696;SDS011;54486;51.442;6.778;2024-02-14T05:31:52;6.43;;;2.08;;
67696;SDS011;54486;51.442;6.778;2024-02-14T05:34:22;6.13;;;2.10;;
67696;SDS011;54486;51.442;6.778;2024-02-14T05:36:49;7.45;;;2.00;;
67696;SDS011;54486;51.442;6.778;2024-02-14T05:39:18;6.45;;;1.80;;
67696;SDS011;54486;51.442;6.778;2024-02-14T05:41:45;6.68;;;1.88;;
67696;SDS011;54486;51.442;6.778;2024-02-14T05:44:13;6.50;;;1.83;;
67696;SDS011;54486;51.442;6.778;2024-02-14T05:46:40;7.00;;;1.83;;
67696;SDS011;54486;51.442;6.778;2024-02-14T05:49:08;6.03;;;1.73;;
67696;SDS011;54486;51.442;6.778;2024-02-14T05:51:40;5.82;;;1.70;;
67696;SDS011;54486;51.442;6.778;2024-02-14T05:54:07;5.72;;;1.77;;
67696;SDS011;54486;51.442;6.778;2024-02-14T05:56:35;6.10;;;1.90;;
67696;SDS011;54486;51.442;6.778;2024-02-14T05:59:02;5.90;;;2.00;;
67696;SDS011;54486;51.442;6.778;2024-02-14T06:01:29;6.55;;;1.80;;
67696;SDS011;54486;51.442;6.778;2024-02-14T06:03:56;7.10;;;2.00;;
67696;SDS011;54486;51.442;6.778;2024-02-14T06:06:24;6.57;;;1.77;;
67696;SDS011;54486;51.442;6.778;2024-02-14T06:08:52;6.10;;;1.80;;
67696;SDS011;54486;51.442;6.778;2024-02-14T06:11:19;7.45;;;2.00;;
67696;SDS011;54486;51.442;6.778;2024-02-14T06:13:48;6.18;;;1.92;;
67696;SDS011;54486;51.442;6.778;2024-02-14T06:16:15;6.72;;;1.90;;
67696;SDS011;54486;51.442;6.778;2024-02-14T06:18:43;7.25;;;1.90;;
67696;SDS011;54486;51.442;6.778;2024-02-14T06:21:11;5.45;;;1.70;;
67696;SDS011;54486;51.442;6.778;2024-02-14T06:23:38;6.20;;;1.90;;
67696;SDS011;54486;51.442;6.778;2024-02-14T06:26:06;7.50;;;2.00;;
67696;SDS011;54486;51.442;6.778;2024-02-14T06:28:34;5.93;;;2.05;;
67696;SDS011;54486;51.442;6.778;2024-02-14T06:31:01;6.70;;;2.10;;
67696;SDS011;54486;51.442;6.778;2024-02-14T06:33:28;6.38;;;1.75;;
67696;SDS011;54486;51.442;6.778;2024-02-14T06:35:57;6.60;;;2.00;;
67696;SDS011;54486;51.442;6.778;2024-02-14T06:38:24;6.47;;;1.92;;
67696;SDS011;54486;51.442;6.778;2024-02-14T06:40:51;5.97;;;1.92;;
67696;SDS011;54486;51.442;6.778;2024-02-14T06:43:19;7.13;;;2.22;;
67696;SDS011;54486;51.442;6.778;2024-02-14T06:45:46;6.10;;;1.80;;
67696;SDS011;54486;51.442;6.778;2024-02-14T06:48:17;6.47;;;1.90;;
67696;SDS011;54486;51.442;6.778;2024-02-14T06:50:49;6.22;;;2.10;;
67696;SDS011;54486;51.442;6.778;2024-02-14T06:53:17;6.50;;;1.90;;
67696;SDS011;54486;51.442;6.778;2024-02-14T06:55:45;6.63;;;2.35;;
67696;SDS011;54486;51.442;6.778;2024-02-14T06:58:13;5.93;;;1.90;;
67696;SDS011;54486;51.442;6.778;2024-02-14T07:00:41;6.78;;;2.17;;
67696;SDS011;54486;51.442;6.778;2024-02-14T07:03:09;6.63;;;1.90;;
67696;SDS011;54486;51.442;6.778;2024-02-14T07:05:37;5.70;;;1.92;;
67696;SDS011;54486;51.442;6.778;2024-02-14T07:08:05;6.25;;;1.80;;
67696;SDS011;54486;51.442;6.778;2024-02-14T07:10:32;6.80;;;2.00;;
67696;SDS011;54486;51.442;6.778;2024-02-14T07:13:00;6.45;;;2.00;;
67696;SDS011;54486;51.442;6.778;2024-02-14T07:15:27;6.20;;;1.95;;
67696;SDS011;54486;51.442;6.778;2024-02-14T07:17:55;7.15;;;2.50;;
67696;SDS011;54486;51.442;6.778;2024-02-14T07:20:25;7.10;;;2.22;;
67696;SDS011;54486;51.442;6.778;2024-02-14T07:22:55;7.25;;;2.67;;
67696;SDS011;54486;51.442;6.778;2024-02-14T07:25:23;7.57;;;2.30;;
67696;SDS011;54486;51.442;6.778;2024-02-14T07:27:51;7.22;;;2.30;;
67696;SDS011;54486;51.442;6.778;2024-02-14T07:30:18;7.22;;;2.80;;
67696;SDS011;54486;51.442;6.778;2024-02-14T07:32:45;6.95;;;2.05;;
67696;SDS011;54486;51.442;6.778;2024-02-14T07:35:12;6.90;;;2.28;;
67696;SDS011;54486;51.442;6.778;2024-02-14T07:37:40;7.93;;;2.40;;
67696;SDS011;54486;51.442;6.778;2024-02-14T07:40:09;7.50;;;2.60;;
67696;SDS011;54486;51.442;6.778;2024-02-14T07:42:39;8.00;;;2.22;;
67696;SDS011;54486;51.442;6.778;2024-02-14T07:45:06;9.00;;;2.50;;
67696;SDS011;54486;51.442;6.778;2024-02-14T07:47:33;8.85;;;2.83;;
67696;SDS011;54486;51.442;6.778;2024-02-14T07:50:01;8.35;;;2.63;;
67696;SDS011;54486;51.442;6.778;2024-02-14T07:52:30;7.70;;;2.53;;
67696;SDS011;54486;51.442;6.778;2024-02-14T07:55:02;7.55;;;2.90;;
67696;SDS011;54486;51.442;6.778;2024-02-14T07:57:29;6.90;;;2.40;;
67696;SDS011;54486;51.442;6.778;2024-02-14T07:59:57;8.10;;;2.80;;
67696;SDS011;54486;51.442;6.778;2024-02-14T08:02:24;8.30;;;2.80;;
67696;SDS011;54486;51.442;6.778;2024-02-14T08:04:51;7.70;;;2.78;;
67696;SDS011;54486;51.442;6.778;2024-02-14T08:07:19;9.68;;;2.63;;
67696;SDS011;54486;51.442;6.778;2024-02-14T08:09:46;7.97;;;3.10;;
67696;SDS011;54486;51.442;6.778;2024-02-14T08:12:13;8.02;;;2.72;;
67696;SDS011;54486;51.442;6.778;2024-02-14T08:14:41;8.05;;;3.10;;
67696;SDS011;54486;51.442;6.778;2024-02-14T08:17:09;9.45;;;3.08;;
67696;SDS011;54486;51.442;6.778;2024-02-14T08:19:36;8.10;;;2.78;;
67696;SDS011;54486;51.442;6.778;2024-02-14T08:22:03;7.72;;;2.92;;
67696;SDS011;54486;51.442;6.778;2024-02-14T08:24:31;7.40;;;2.50;;
67696;SDS011;54486;51.442;6.778;2024-02-14T08:26:58;7.78;;;2.80;;
67696;SDS011;54486;51.442;6.778;2024-02-14T08:29:25;9.32;;;3.28;;
67696;SDS011;54486;51.442;6.778;2024-02-14T08:31:52;8.90;;;2.97;;
67696;SDS011;54486;51.442;6.778;2024-02-14T08:34:20;8.15;;;2.70;;
67696;SDS011;54486;51.442;6.778;2024-02-14T08:36:48;7.93;;;2.50;;
67696;SDS011;54486;51.442;6.778;2024-02-14T08:39:15;7.93;;;2.60;;
67696;SDS011;54486;51.442;6.778;2024-02-14T08:41:43;8.90;;;2.65;;
67696;SDS011;54486;51.442;6.778;2024-02-14T08:44:15;7.88;;;2.72;;
67696;SDS011;54486;51.442;6.778;2024-02-14T08:46:44;8.15;;;2.53;;
67696;SDS011;54486;51.442;6.778;2024-02-14T08:49:16;7.63;;;2.63;;
67696;SDS011;54486;51.442;6.778;2024-02-14T08:51:43;7.82;;;2.45;;
67696;SDS011;54486;51.442;6.778;2024-02-14T08:54:12;8.13;;;2.40;;
67696;SDS011;54486;51.442;6.778;2024-02-14T08:56:41;7.65;;;2.47;;
67696;SDS011;54486;51.442;6.778;2024-02-14T08:59:09;7.15;;;2.17;;
67696;SDS011;54486;51.442;6.778;2024-02-14T09:01:37;8.77;;;2.63;;
67696;SDS011;54486;51.442;6.778;2024-02-14T09:04:05;7.95;;;2.58;;
67696;SDS011;54486;51.442;6.778;2024-02-14T09:06:32;8.20;;;2.60;;
67696;SDS011;54486;51.442;6.778;2024-02-14T09:09:01;8.45;;;2.83;;
67696;SDS011;54486;51.442;6.778;2024-02-14T09:11:29;7.28;;;2.50;;
67696;SDS011;54486;51.442;6.778;2024-02-14T09:13:57;8.65;;;2.80;;
67696;SDS011;54486;51.442;6.778;2024-02-14T09:16:31;7.82;;;2.45;;
67696;SDS011;54486;51.442;6.778;2024-02-14T09:18:58;9.27;;;3.00;;
67696;SDS011;54486;51.442;6.778;2024-02-14T09:21:27;7.78;;;2.80;;
67696;SDS011;54486;51.442;6.778;2024-02-14T09:23:56;7.75;;;2.50;;
67696;SDS011;54486;51.442;6.778;2024-02-14T09:26:25;8.30;;;3.28;;
67696;SDS011;54486;51.442;6.778;2024-02-14T09:28:54;7.85;;;2.10;;
67696;SDS011;54486;51.442;6.778;2024-02-14T09:31:21;8.23;;;2.23;;
67696;SDS011;54486;51.442;6.778;2024-02-14T09:33:49;8.70;;;2.47;;
67696;SDS011;54486;51.442;6.778;2024-02-14T09:36:17;8.00;;;2.13;;
67696;SDS011;54486;51.442;6.778;2024-02-14T09:38:44;8.13;;;2.45;;
67696;SDS011;54486;51.442;6.778;2024-02-14T09:41:14;8.93;;;2.20;;
67696;SDS011;54486;51.442;6.778;2024-02-14T09:43:49;10.70;;;3.58;;
67696;SDS011;54486;51.442;6.778;2024-02-14T09:46:16;10.18;;;2.80;;
67696;SDS011;54486;51.442;6.778;2024-02-14T09:48:44;9.77;;;3.05;;
67696;SDS011;54486;51.442;6.778;2024-02-14T09:51:12;9.60;;;3.03;;
67696;SDS011;54486;51.442;6.778;2024-02-14T09:53:40;8.05;;;2.70;;
67696;SDS011;54486;51.442;6.778;2024-02-14T09:56:11;9.67;;;3.33;;
67696;SDS011;54486;51.442;6.778;2024-02-14T09:58:44;8.18;;;2.85;;
67696;SDS011;54486;51.442;6.778;2024-02-14T10:01:28;8.43;;;2.60;;
67696;SDS011;54486;51.442;6.778;2024-02-14T10:03:56;7.73;;;2.80;;
67696;SDS011;54486;51.442;6.778;2024-02-14T10:06:23;7.82;;;2.95;;
67696;SDS011;54486;51.442;6.778;2024-02-14T10:08:52;11.50;;;3.83;;
67696;SDS011;54486;51.442;6.778;2024-02-14T10:11:33;12.55;;;5.78;;
67696;SDS011;54486;51.442;6.778;2024-02-14T10:14:01;11.95;;;4.65;;
67696;SDS011;54486;51.442;6.778;2024-02-14T10:16:32;14.70;;;9.30;;
67696;SDS011;54486;51.442;6.778;2024-02-14T10:19:02;13.20;;;6.43;;
67696;SDS011;54486;51.442;6.778;2024-02-14T10:21:31;11.35;;;5.40;;
67696;SDS011;54486;51.442;6.778;2024-02-14T10:24:00;12.60;;;5.40;;
67696;SDS011;54486;51.442;6.778;2024-02-14T10:26:28;10.40;;;4.57;;
67696;SDS011;54486;51.442;6.778;2024-02-14T10:28:57;11.10;;;4.47;;
67696;SDS011;54486;51.442;6.778;2024-02-14T10:31:25;10.47;;;3.87;;
67696;SDS011;54486;51.442;6.778;2024-02-14T10:33:53;10.70;;;4.10;;
67696;SDS011;54486;51.442;6.778;2024-02-14T10:36:23;12.63;;;4.00;;
67696;SDS011;54486;51.442;6.778;2024-02-14T10:38:51;9.43;;;3.60;;
67696;SDS011;54486;51.442;6.778;2024-02-14T10:41:18;10.93;;;3.40;;
67696;SDS011;54486;51.442;6.778;2024-02-14T10:43:46;9.47;;;3.20;;
67696;SDS011;54486;51.442;6.778;2024-02-14T10:46:20;8.67;;;3.10;;
67696;SDS011;54486;51.442;6.778;2024-02-14T10:48:52;9.68;;;3.20;;
67696;SDS011;54486;51.442;6.778;2024-02-14T10:51:25;8.30;;;3.00;;
67696;SDS011;54486;51.442;6.778;2024-02-14T10:53:58;8.35;;;2.50;;
67696;SDS011;54486;51.442;6.778;2024-02-14T10:56:30;7.70;;;2.40;;
67696;SDS011;54486;51.442;6.778;2024-02-14T10:59:00;7.75;;;2.50;;
67696;SDS011;54486;51.442;6.778;2024-02-14T11:01:29;8.13;;;2.65;;
67696;SDS011;54486;51.442;6.778;2024-02-14T11:03:59;7.30;;;2.40;;
67696;SDS011;54486;51.442;6.778;2024-02-14T11:06:28;8.20;;;2.58;;
67696;SDS011;54486;51.442;6.778;2024-02-14T11:09:00;7.43;;;2.20;;
67696;SDS011;54486;51.442;6.778;2024-02-14T11:11:33;7.57;;;2.25;;
67696;SDS011;54486;51.442;6.778;2024-02-14T11:14:01;7.53;;;2.10;;
67696;SDS011;54486;51.442;6.778;2024-02-14T11:16:30;7.05;;;2.22;;
67696;SDS011;54486;51.442;6.778;2024-02-14T11:19:07;7.25;;;2.22;;
67696;SDS011;54486;51.442;6.778;2024-02-14T11:21:40;7.07;;;2.03;;
67696;SDS011;54486;51.442;6.778;2024-02-14T11:24:14;7.53;;;2.00;;
67696;SDS011;54486;51.442;6.778;2024-02-14T11:26:46;7.15;;;1.70;;
67696;SDS011;54486;51.442;6.778;2024-02-14T11:29:16;8.40;;;1.90;;
67696;SDS011;54486;51.442;6.778;2024-02-14T11:31:56;7.13;;;1.85;;
67696;SDS011;54486;51.442;6.778;2024-02-14T11:34:26;6.55;;;1.70;;
67696;SDS011;54486;51.442;6.778;2024-02-14T11:36:54;6.20;;;1.92;;
67696;SDS011;54486;51.442;6.778;2024-02-14T11:39:21;7.18;;;2.08;;
67696;SDS011;54486;51.442;6.778;2024-02-14T11:41:49;6.63;;;1.80;;
67696;SDS011;54486;51.442;6.778;2024-02-14T11:44:18;7.18;;;2.05;;
67696;SDS011;54486;51.442;6.778;2024-02-14T11:46:50;6.30;;;2.05;;
67696;SDS011;54486;51.442;6.778;2024-02-14T11:49:17;7.43;;;2.10;;
67696;SDS011;54486;51.442;6.778;2024-02-14T11:51:46;7.35;;;2.10;;
67696;SDS011;54486;51.442;6.778;2024-02-14T11:54:14;6.72;;;2.05;;
67696;SDS011;54486;51.442;6.778;2024-02-14T11:56:43;6.07;;;1.80;;
67696;SDS011;54486;51.442;6.778;2024-02-14T11:59:12;7.50;;;2.03;;
67696;SDS011;54486;51.442;6.778;2024-02-14T12:01:39;7.15;;;1.77;;
67696;SDS011;54486;51.442;6.778;2024-02-14T12:04:10;7.93;;;1.87;;
67696;SDS011;54486;51.442;6.778;2024-02-14T12:06:39;7.47;;;2.10;;
67696;SDS011;54486;51.442;6.778;2024-02-14T12:09:11;6.68;;;1.75;;
67696;SDS011;54486;51.442;6.778;2024-02-14T12:11:40;6.60;;;1.90;;
67696;SDS011;54486;51.442;6.778;2024-02-14T12:14:13;6.57;;;1.77;;
67696;SDS011;54486;51.442;6.778;2024-02-14T12:16:42;5.90;;;1.77;;
67696;SDS011;54486;51.442;6.778;2024-02-14T12:19:09;6.68;;;2.00;;
67696;SDS011;54486;51.442;6.778;2024-02-14T12:21:43;6.60;;;1.63;;
67696;SDS011;54486;51.442;6.778;2024-02-14T12:24:12;5.95;;;1.70;;
67696;SDS011;54486;51.442;6.778;2024-02-14T12:26:42;5.80;;;1.60;;
67696;SDS011;54486;51.442;6.778;2024-02-14T12:29:11;6.45;;;1.67;;
67696;SDS011;54486;51.442;6.778;2024-02-14T12:31:40;8.40;;;1.90;;
67696;SDS011;54486;51.442;6.778;2024-02-14T12:34:11;5.82;;;1.60;;
67696;SDS011;54486;51.442;6.778;2024-02-14T12:36:39;8.05;;;1.90;;
67696;SDS011;54486;51.442;6.778;2024-02-14T12:39:07;7.13;;;1.67;;
67696;SDS011;54486;51.442;6.778;2024-02-14T12:41:36;7.88;;;2.22;;
67696;SDS011;54486;51.442;6.778;2024-02-14T12:44:07;8.27;;;1.92;;
67696;SDS011;54486;51.442;6.778;2024-02-14T12:46:34;9.70;;;2.35;;
67696;SDS011;54486;51.442;6.778;2024-02-14T12:49:05;11.27;;;2.60;;
67696;SDS011;54486;51.442;6.778;2024-02-14T12:51:33;11.10;;;2.28;;
67696;SDS011;54486;51.442;6.778;2024-02-14T12:54:02;11.95;;;2.50;;
67696;SDS011;54486;51.442;6.778;2024-02-14T12:56:30;11.43;;;2.72;;
67696;SDS011;54486;51.442;6.778;2024-02-14T12:58:58;10.18;;;2.30;;
67696;SDS011;54486;51.442;6.778;2024-02-14T13:01:28;10.85;;;2.28;;
67696;SDS011;54486;51.442;6.778;2024-02-14T13:03:55;10.95;;;2.47;;
67696;SDS011;54486;51.442;6.778;2024-02-14T13:06:23;8.37;;;2.50;;
67696;SDS011;54486;51.442;6.778;2024-02-14T13:08:50;10.38;;;2.42;;
67696;SDS011;54486;51.442;6.778;2024-02-14T13:11:17;8.07;;;2.20;;
67696;SDS011;54486;51.442;6.778;2024-02-14T13:13:45;9.93;;;2.20;;
67696;SDS011;54486;51.442;6.778;2024-02-14T13:16:12;8.90;;;2.33;;
67696;SDS011;54486;51.442;6.778;2024-02-14T13:18:40;9.35;;;2.35;;
67696;SDS011;54486;51.442;6.778;2024-02-14T13:21:07;8.60;;;2.53;;
67696;SDS011;54486;51.442;6.778;2024-02-14T13:23:35;7.65;;;2.10;;
67696;SDS011;54486;51.442;6.778;2024-02-14T13:26:02;6.65;;;1.70;;
67696;SDS011;54486;51.442;6.778;2024-02-14T13:28:31;6.90;;;1.80;;
67696;SDS011;54486;51.442;6.778;2024-02-14T13:30:58;7.40;;;1.88;;
67696;SDS011;54486;51.442;6.778;2024-02-14T13:33:25;6.87;;;1.60;;
67696;SDS011;54486;51.442;6.778;2024-02-14T13:35:53;6.93;;;1.90;;
67696;SDS011;54486;51.442;6.778;2024-02-14T13:38:21;6.28;;;1.58;;
67696;SDS011;54486;51.442;6.778;2024-02-14T13:40:48;7.13;;;1.90;;
67696;SDS011;54486;51.442;6.778;2024-02-14T13:43:16;6.35;;;1.80;;
67696;SDS011;54486;51.442;6.778;2024-02-14T13:45:45;6.35;;;1.50;;
67696;SDS011;54486;51.442;6.778;2024-02-14T13:48:15;5.15;;;1.30;;
67696;SDS011;54486;51.442;6.778;2024-02-14T13:50:43;5.47;;;1.30;;
67696;SDS011;54486;51.442;6.778;2024-02-14T13:53:11;5.30;;;1.60;;
67696;SDS011;54486;51.442;6.778;2024-02-14T13:55:38;6.30;;;1.70;;
67696;SDS011;54486;51.442;6.778;2024-02-14T13:58:06;6.00;;;1.33;;
67696;SDS011;54486;51.442;6.778;2024-02-14T14:00:41;5.88;;;1.60;;
67696;SDS011;54486;51.442;6.778;2024-02-14T14:03:08;5.93;;;1.20;;
67696;SDS011;54486;51.442;6.778;2024-02-14T14:05:35;6.65;;;1.73;;
67696;SDS011;54486;51.442;6.778;2024-02-14T14:08:03;6.40;;;1.50;;
67696;SDS011;54486;51.442;6.778;2024-02-14T14:10:30;5.70;;;1.58;;
67696;SDS011;54486;51.442;6.778;2024-02-14T14:12:58;6.55;;;1.60;;
67696;SDS011;54486;51.442;6.778;2024-02-14T14:15:25;5.15;;;1.30;;
67696;SDS011;54486;51.442;6.778;2024-02-14T14:17:53;5.75;;;1.63;;
67696;SDS011;54486;51.442;6.778;2024-02-14T14:20:21;5.90;;;1.40;;
67696;SDS011;54486;51.442;6.778;2024-02-14T14:22:49;5.03;;;1.47;;
67696;SDS011;54486;51.442;6.778;2024-02-14T14:25:16;4.97;;;1.30;;
67696;SDS011;54486;51.442;6.778;2024-02-14T14:27:45;5.77;;;1.73;;
67696;SDS011;54486;51.442;6.778;2024-02-14T14:30:12;5.75;;;1.50;;
67696;SDS011;54486;51.442;6.778;2024-02-14T14:32:40;5.47;;;1.40;;
67696;SDS011;54486;51.442;6.778;2024-02-14T14:35:08;6.10;;;1.73;;
67696;SDS011;54486;51.442;6.778;2024-02-14T14:37:40;5.57;;;1.52;;
67696;SDS011;54486;51.442;6.778;2024-02-14T14:40:07;7.93;;;1.80;;
67696;SDS011;54486;51.442;6.778;2024-02-14T14:42:36;6.57;;;1.50;;
67696;SDS011;54486;51.442;6.778;2024-02-14T14:45:04;7.63;;;1.98;;
67696;SDS011;54486;51.442;6.778;2024-02-14T14:47:31;7.65;;;2.00;;
67696;SDS011;54486;51.442;6.778;2024-02-14T14:49:59;7.80;;;1.90;;
67696;SDS011;54486;51.442;6.778;2024-02-14T14:52:27;8.00;;;1.98;;